KIFA

Iowa Falls Municipal Airport

Iowa Falls, Iowa, USA
METAR KIFA 171635Z AUTO 02004KT 10SM CLR 26/20 A3006 RMK AO2 T02600200
Observed Flight Rules
Aug-17 @ 16:35 UTC (15 minutes ago) Visual Flight Rules
Wind Visibility Clouds
20° at 4 knots 10 miles
  • Clear skies
Temperatures Readings
Current 26°C / 79°F
Dewpoint 20°C / 68°F
Humidity 70%
Altimeter 30.06" Hg
Pressure 1018 hPa
Elevation 347
METAR KIFA 171635Z AUTO 02004KT 10SM CLR 26/20 A3006 RMK AO2 T02600200
Observed Flight Rules
Aug-17 @ 16:35 UTC
(15 minutes ago)
VFR
Wind Visibility
20° at 4 knots 10 miles
Clouds
  • Clear skies
Temperature Dewpoint
26°C / 79°F 20°C / 68°F
Humidity Altimeter Pressure
70% 30.06" Hg 1018 hPa